Time;durP1;ratioP1;P1;durP2;ratioP2;P2;SDS_P1;SDS_P2;PMS_P1;PMS_P2;Temp;Humidity;BMP_temperature;BMP_pressure;BME280_temperature;BME280_humidity;BME280_pressure;Samples;Min_cycle;Max_cycle;Signal;HPM_P1;HPM_P2
2023/03/10 00:01:47;;;;;;;0.80;0.80;;;;;;;2.15;100.00;98820.47;10418840;28;20060;-73
2023/03/10 00:06:47;;;;;;;0.50;0.50;;;;;;;2.09;100.00;98803.38;10418421;28;20040;-73
2023/03/10 00:11:48;;;;;;;0.90;0.90;;;;;;;1.97;100.00;98807.59;10418540;28;20033;-73
2023/03/10 00:16:48;;;;;;;0.57;0.57;;;;;;;2.05;100.00;98813.63;10417556;28;20504;-73
2023/03/10 00:21:48;;;;;;;1.10;1.10;;;;;;;2.00;100.00;98802.69;10417127;28;20049;-74
2023/03/10 00:26:49;;;;;;;0.63;0.63;;;;;;;1.98;100.00;98795.91;10416616;28;20400;-73
2023/03/10 00:31:49;;;;;;;0.70;0.70;;;;;;;2.02;100.00;98784.66;10416246;28;20033;-73
2023/03/10 00:36:50;;;;;;;0.70;0.70;;;;;;;2.00;100.00;98776.00;10416276;28;20034;-74
2023/03/10 00:41:50;;;;;;;0.60;0.60;;;;;;;2.03;100.00;98778.28;10416701;28;20397;-74
2023/03/10 00:46:50;;;;;;;0.70;0.70;;;;;;;2.14;100.00;98781.44;10415431;28;20033;-73
2023/03/10 00:51:51;;;;;;;1.35;1.35;;;;;;;2.07;100.00;98782.25;10416329;28;20127;-74
2023/03/10 00:56:51;;;;;;;0.70;0.70;;;;;;;2.02;100.00;98768.63;10430747;28;20075;-73
2023/03/10 01:01:52;;;;;;;0.80;0.80;;;;;;;2.02;100.00;98768.63;10414453;28;20037;-73
2023/03/10 01:06:52;;;;;;;0.65;0.65;;;;;;;2.06;100.00;98769.88;10416933;28;20060;-73
2023/03/10 01:11:52;;;;;;;0.70;0.70;;;;;;;2.08;100.00;98765.19;10414890;28;20033;-74
2023/03/10 01:16:53;;;;;;;0.70;0.70;;;;;;;2.07;100.00;98754.69;10415438;28;20029;-73
2023/03/10 01:21:53;;;;;;;0.60;0.60;;;;;;;2.06;100.00;98745.88;10416330;28;20456;-74
2023/03/10 01:26:54;;;;;;;0.85;0.85;;;;;;;2.08;100.00;98759.84;10397307;28;20144;-74
2023/03/10 01:31:54;;;;;;;3.30;1.58;;;;;;;2.07;100.00;98739.53;10415120;28;20041;-74
2023/03/10 01:36:54;;;;;;;0.60;0.60;;;;;;;2.11;100.00;98734.63;10416043;28;20040;-73
2023/03/10 01:41:55;;;;;;;0.60;0.60;;;;;;;2.12;100.00;98738.91;10413621;28;20033;-73
2023/03/10 01:46:57;;;;;;;0.55;0.55;;;;;;;2.11;100.00;98726.59;10414411;28;20029;-73
2023/03/10 01:52:19;;;;;;;0.88;0.88;;;;;;;2.08;100.00;98727.81;10414343;28;20425;-73
2023/03/10 01:57:24;;;;;;;0.70;0.70;;;;;;;2.03;100.00;98722.22;10414215;28;20033;-74
2023/03/10 02:02:24;;;;;;;0.88;0.88;;;;;;;2.10;100.00;98703.56;10413197;28;20468;-74
2023/03/10 02:07:26;;;;;;;0.70;0.70;;;;;;;2.07;100.00;98688.81;10398473;28;20056;-73
2023/03/10 02:12:26;;;;;;;0.73;0.73;;;;;;;2.00;100.00;98693.25;10404399;28;20512;-73
2023/03/10 02:17:27;;;;;;;0.60;0.60;;;;;;;2.01;100.00;98694.94;10420554;28;20112;-73
2023/03/10 02:22:27;;;;;;;2.00;1.90;;;;;;;2.07;100.00;98691.47;10420415;28;20049;-73
2023/03/10 02:27:34;;;;;;;12.60;7.72;;;;;;;2.08;100.00;98685.09;10422387;28;20049;-75
2023/03/10 02:32:37;;;;;;;0.80;0.80;;;;;;;2.05;100.00;98682.81;10403994;28;20040;-74
2023/03/10 02:37:37;;;;;;;0.50;0.50;;;;;;;2.05;100.00;98674.81;10421255;28;20025;-73
2023/03/10 02:42:38;;;;;;;0.60;0.60;;;;;;;2.01;100.00;98668.22;10421813;28;20111;-73
2023/03/10 02:47:39;;;;;;;0.70;0.70;;;;;;;2.15;100.00;98670.97;10401956;28;20091;-74
2023/03/10 02:52:43;;;;;;;0.70;0.70;;;;;;;2.08;100.00;98668.25;10418842;28;20030;-74
2023/03/10 02:57:44;;;;;;;0.50;0.50;;;;;;;2.00;100.00;98661.22;10419068;28;20452;-74
2023/03/10 03:02:44;;;;;;;0.52;0.52;;;;;;;2.00;100.00;98657.72;10418225;28;20125;-74
2023/03/10 03:07:45;;;;;;;0.60;0.60;;;;;;;2.00;100.00;98655.06;10418168;28;20065;-73
2023/03/10 03:12:45;;;;;;;0.50;0.50;;;;;;;2.00;100.00;98653.22;10418713;28;20568;-73
2023/03/10 03:17:46;;;;;;;0.50;0.50;;;;;;;2.00;100.00;98649.72;10418137;28;20120;-73
2023/03/10 03:22:47;;;;;;;0.60;0.60;;;;;;;2.01;100.00;98638.88;10418285;28;20080;-74
2023/03/10 03:27:47;;;;;;;0.90;0.90;;;;;;;2.06;100.00;98640.94;10417491;28;20034;-74
2023/03/10 03:32:48;;;;;;;0.50;0.50;;;;;;;2.07;100.00;98642.56;10417901;28;20432;-74
2023/03/10 03:37:49;;;;;;;0.65;0.65;;;;;;;2.10;100.00;98645.66;10418835;28;20029;-74
2023/03/10 03:42:51;;;;;;;1.60;1.60;;;;;;;2.16;100.00;98648.56;10417233;28;20036;-74
2023/03/10 03:47:51;;;;;;;0.65;0.65;;;;;;;2.06;100.00;98639.09;10418335;28;20079;-74
2023/03/10 03:52:52;;;;;;;0.60;0.60;;;;;;;1.98;100.00;98644.59;10417669;28;20029;-75
2023/03/10 03:57:52;;;;;;;0.80;0.80;;;;;;;1.99;100.00;98629.41;10416231;28;20025;-74
2023/03/10 04:02:53;;;;;;;1.00;1.00;;;;;;;2.00;100.00;98607.84;10418968;28;20041;-73
2023/03/10 04:07:53;;;;;;;0.50;0.50;;;;;;;1.99;100.00;98618.72;10417943;28;20045;-74
2023/03/10 04:12:54;;;;;;;0.70;0.70;;;;;;;1.99;100.00;98634.75;10417446;28;20116;-75
2023/03/10 04:17:56;;;;;;;0.70;0.70;;;;;;;2.06;100.00;98630.25;10417190;28;20112;-74
2023/03/10 04:22:57;;;;;;;0.60;0.60;;;;;;;1.94;100.00;98619.31;10415180;28;20041;-74
2023/03/10 04:27:57;;;;;;;0.80;0.80;;;;;;;1.92;100.00;98618.69;10399620;28;20037;-74
2023/03/10 04:32:59;;;;;;;3.72;2.60;;;;;;;2.00;100.00;98628.38;10413528;28;20507;-74
2023/03/10 04:38:00;;;;;;;0.63;0.63;;;;;;;1.97;100.00;98631.44;10415393;28;20047;-74
2023/03/10 04:43:00;;;;;;;2.88;2.78;;;;;;;1.97;100.00;98634.09;10398128;28;20045;-74
2023/03/10 04:48:00;;;;;;;1.40;1.40;;;;;;;1.97;100.00;98632.25;10414598;28;20040;-74
2023/03/10 04:53:01;;;;;;;0.50;0.50;;;;;;;1.94;100.00;98607.81;10415437;28;20098;-74
2023/03/10 04:58:01;;;;;;;0.70;0.70;;;;;;;2.01;100.00;98612.19;10414847;28;20384;-74
2023/03/10 05:03:02;;;;;;;1.98;1.85;;;;;;;2.04;100.00;98626.94;10415170;28;20034;-74
2023/03/10 05:08:03;;;;;;;0.60;0.60;;;;;;;1.92;100.00;98620.56;10413625;28;20037;-74
2023/03/10 05:13:03;;;;;;;0.75;0.75;;;;;;;1.89;100.00;98610.28;10397169;28;20036;-74
2023/03/10 05:18:04;;;;;;;0.68;0.68;;;;;;;1.95;100.00;98610.31;10413344;28;20040;-74
2023/03/10 05:23:05;;;;;;;2.13;2.05;;;;;;;1.91;100.00;98602.88;10414092;28;20125;-74
2023/03/10 05:28:05;;;;;;;0.70;0.70;;;;;;;1.99;100.00;98603.53;10413705;28;20049;-74
2023/03/10 05:33:06;;;;;;;0.70;0.70;;;;;;;2.07;100.00;98611.38;10412918;28;20044;-73
2023/03/10 05:38:06;;;;;;;1.92;1.83;;;;;;;2.03;100.00;98619.97;10413974;28;20056;-77
2023/03/10 05:43:07;;;;;;;1.40;1.33;;;;;;;1.97;100.00;98613.56;10417729;28;20037;-72
2023/03/10 05:48:07;;;;;;;0.50;0.50;;;;;;;1.94;100.00;98616.63;10421713;28;20029;-72
2023/03/10 05:53:08;;;;;;;0.50;0.50;;;;;;;1.91;100.00;98616.22;10423518;28;20437;-72
2023/03/10 05:58:08;;;;;;;0.70;0.70;;;;;;;1.90;100.00;98617.25;10420805;28;20044;-76
2023/03/10 06:03:09;;;;;;;0.52;0.52;;;;;;;1.94;100.00;98618.50;10423531;28;20131;-74
2023/03/10 06:08:09;;;;;;;0.50;0.50;;;;;;;1.96;100.00;98614.59;10421718;28;20441;-74
2023/03/10 06:13:10;;;;;;;2.15;2.05;;;;;;;1.98;100.00;98619.72;10354873;28;20357;-73
2023/03/10 06:18:11;;;;;;;0.70;0.70;;;;;;;2.02;100.00;98621.81;10422093;28;20115;-73
2023/03/10 06:23:11;;;;;;;0.80;0.80;;;;;;;2.01;100.00;98622.84;10419639;28;20059;-74
2023/03/10 06:28:12;;;;;;;0.50;0.50;;;;;;;2.01;100.00;98622.84;10419602;28;20029;-74
2023/03/10 06:33:12;;;;;;;0.63;0.63;;;;;;;2.01;100.00;98620.19;10419428;28;20033;-74
2023/03/10 06:38:13;;;;;;;1.02;1.02;;;;;;;2.07;100.00;98629.22;10421443;28;20080;-73
2023/03/10 06:43:13;;;;;;;0.93;0.93;;;;;;;2.08;100.00;98623.69;10418238;28;20099;-74
2023/03/10 06:48:14;;;;;;;0.65;0.65;;;;;;;2.07;100.00;98626.56;10402005;28;20429;-74
2023/03/10 06:53:16;;;;;;;0.57;0.57;;;;;;;2.09;100.00;98621.84;10419712;28;20461;-74
2023/03/10 06:58:16;;;;;;;0.73;0.73;;;;;;;2.08;100.00;98626.38;10419639;28;20036;-73
2023/03/10 07:03:17;;;;;;;0.88;0.88;;;;;;;2.04;100.00;98625.13;10419405;28;20403;-74
2023/03/10 07:08:18;;;;;;;1.20;1.20;;;;;;;2.02;100.00;98624.50;10420278;28;20408;-73
2023/03/10 07:13:18;;;;;;;0.50;0.50;;;;;;;2.05;100.00;98629.44;10420275;28;20048;-74
2023/03/10 07:18:19;;;;;;;0.73;0.73;;;;;;;2.00;100.00;98610.50;10417928;28;20041;-74
2023/03/10 07:23:19;;;;;;;1.20;1.20;;;;;;;2.05;100.00;98620.59;10400728;28;20081;-74
2023/03/10 07:28:20;;;;;;;0.60;0.60;;;;;;;2.08;100.00;98629.03;10400928;28;20095;-74
2023/03/10 07:33:20;;;;;;;0.60;0.60;;;;;;;2.19;100.00;98624.97;10400438;28;20041;-74
2023/03/10 07:38:21;;;;;;;0.60;0.60;;;;;;;2.25;100.00;98626.03;10417498;28;20057;-74
2023/03/10 07:43:21;;;;;;;0.70;0.70;;;;;;;2.27;100.00;98634.66;10418893;28;20045;-74
2023/03/10 07:48:21;;;;;;;0.60;0.60;;;;;;;2.27;100.00;98632.81;10416755;28;20064;-73
2023/03/10 07:53:22;;;;;;;0.50;0.50;;;;;;;2.34;100.00;98638.19;10416765;28;20071;-73
2023/03/10 07:58:23;;;;;;;0.60;0.60;;;;;;;2.35;100.00;98644.34;10415871;28;20499;-73
2023/03/10 08:03:24;;;;;;;0.40;0.40;;;;;;;2.38;100.00;98650.09;10415848;28;20044;-73
2023/03/10 08:08:25;;;;;;;0.60;0.60;;;;;;;2.36;100.00;98644.13;10415760;28;20079;-73
2023/03/10 08:13:25;;;;;;;0.50;0.50;;;;;;;2.46;100.00;98646.44;10414785;28;20037;-73
2023/03/10 08:18:26;;;;;;;0.40;0.40;;;;;;;2.46;100.00;98644.59;10415302;28;20112;-73
2023/03/10 08:23:26;;;;;;;0.60;0.60;;;;;;;2.36;100.00;98657.47;10414237;28;20064;-73
2023/03/10 08:28:29;;;;;;;0.50;0.50;;;;;;;2.35;100.00;98655.84;10417900;28;20025;-73
2023/03/10 08:33:29;;;;;;;0.50;0.50;;;;;;;2.33;100.00;98657.91;10418157;28;20461;-73
2023/03/10 08:38:30;;;;;;;0.57;0.57;;;;;;;2.27;100.00;98650.69;10415802;28;20064;-73
2023/03/10 08:43:30;;;;;;;0.70;0.70;;;;;;;2.28;100.00;98657.66;10415401;28;20041;-73
2023/03/10 08:48:31;;;;;;;0.93;0.90;;;;;;;2.32;100.00;98672.25;10414243;28;20421;-73
2023/03/10 08:53:32;;;;;;;1.27;1.27;;;;;;;2.38;100.00;98682.16;10416247;28;20112;-73
2023/03/10 08:58:33;;;;;;;1.25;1.25;;;;;;;2.53;100.00;98682.84;10415263;28;20048;-74
2023/03/10 09:03:38;;;;;;;0.47;0.47;;;;;;;2.51;100.00;98692.88;10414380;28;20382;-74
2023/03/10 09:08:40;;;;;;;0.57;0.57;;;;;;;2.48;100.00;98687.94;10413718;28;20037;-74
2023/03/10 09:13:40;;;;;;;0.63;0.63;;;;;;;2.50;100.00;98688.56;10414614;28;20087;-74
2023/03/10 09:18:41;;;;;;;0.70;0.70;;;;;;;2.51;100.00;98682.19;10414562;28;20128;-73
2023/03/10 09:23:42;;;;;;;0.60;0.60;;;;;;;2.47;100.00;98686.31;10379794;28;20049;-74
2023/03/10 09:28:43;;;;;;;0.60;0.60;;;;;;;2.44;100.00;98688.56;10413452;28;20097;-74
2023/03/10 09:33:43;;;;;;;0.80;0.80;;;;;;;2.45;100.00;98687.53;10414200;28;20480;-73
2023/03/10 09:38:44;;;;;;;0.70;0.70;;;;;;;2.39;100.00;98701.66;10413310;28;20419;-74
2023/03/10 09:43:53;;;;;;;0.50;0.50;;;;;;;2.43;100.00;98713.63;10413505;28;20160;-73
2023/03/10 09:49:08;;;;;;;0.70;0.70;;;;;;;2.54;100.00;98710.38;10411938;28;20206;-73
2023/03/10 09:55:05;;;;;;;0.60;0.60;;;;;;;2.58;100.00;98714.28;10397102;28;20384;-73
2023/03/10 10:00:10;;;;;;;0.70;0.70;;;;;;;2.47;100.00;98721.03;10346663;28;20041;-73
2023/03/10 10:05:32;;;;;;;0.52;0.52;;;;;;;2.57;100.00;98728.69;10396372;28;20033;-73
2023/03/10 10:10:35;;;;;;;0.75;0.75;;;;;;;2.67;100.00;98728.31;10412493;28;20025;-73
2023/03/10 10:15:35;;;;;;;0.60;0.60;;;;;;;2.61;100.00;98740.59;10412888;28;20384;-73
2023/03/10 10:20:39;;;;;;;2.30;1.17;;;;;;;2.66;100.00;98748.03;10396261;28;20056;-73
2023/03/10 10:25:39;;;;;;;0.52;0.52;;;;;;;2.62;100.00;98752.13;10412113;28;20087;-73
2023/03/10 10:30:40;;;;;;;0.50;0.50;;;;;;;2.53;100.00;98756.81;10417174;28;20025;-73
2023/03/10 10:35:43;;;;;;;0.70;0.70;;;;;;;2.37;100.00;98757.97;10421220;28;20072;-73
2023/03/10 10:41:14;;;;;;;0.43;0.43;;;;;;;2.40;100.00;98760.25;10403256;28;20491;-74
2023/03/10 10:46:16;;;;;;;0.52;0.52;;;;;;;2.37;100.00;98778.53;10421676;28;20033;-73
2023/03/10 10:51:20;;;;;;;0.70;0.70;;;;;;;2.42;100.00;98768.06;10418733;28;20029;-73
2023/03/10 10:56:22;;;;;;;0.60;0.60;;;;;;;2.60;100.00;98788.91;10401946;28;20425;-73
2023/03/10 11:01:23;;;;;;;0.60;0.60;;;;;;;2.67;100.00;98798.59;10417604;28;20060;-73
2023/03/10 11:06:28;;;;;;;0.60;0.60;;;;;;;2.70;100.00;98806.22;10417977;28;20060;-73
2023/03/10 11:11:35;;;;;;;0.65;0.65;;;;;;;2.66;100.00;98807.66;10419830;28;20036;-73
2023/03/10 11:17:06;;;;;;;0.50;0.50;;;;;;;2.78;100.00;98806.06;10417831;28;20030;-73
2023/03/10 11:22:16;;;;;;;0.70;0.70;;;;;;;2.72;100.00;98801.50;10417675;28;20080;-73
2023/03/10 11:27:26;;;;;;;0.80;0.80;;;;;;;2.81;100.00;98783.47;10385951;28;20037;-73
2023/03/10 11:32:33;;;;;;;0.40;0.40;;;;;;;2.79;100.00;98790.84;10401126;28;20030;-72
2023/03/10 11:37:50;;;;;;;0.52;0.52;;;;;;;2.74;100.00;98780.75;10418029;28;20037;-73
2023/03/10 11:43:04;;;;;;;0.60;0.60;;;;;;;2.81;100.00;98804.84;10419340;28;20159;-72
2023/03/10 11:48:17;;;;;;;0.82;0.82;;;;;;;2.68;100.00;98805.63;10418032;28;20025;-73
2023/03/10 11:53:20;;;;;;;2.17;2.00;;;;;;;2.76;100.00;98817.97;10417843;28;20389;-73
2023/03/10 11:58:30;;;;;;;0.50;0.50;;;;;;;2.71;100.00;98828.41;10418095;28;20108;-73
2023/03/10 12:03:38;;;;;;;0.60;0.60;;;;;;;2.64;100.00;98839.06;10415854;28;20022;-73
2023/03/10 12:08:39;;;;;;;0.50;0.50;;;;;;;2.77;100.00;98838.31;10415531;28;20029;-73
2023/03/10 12:13:43;;;;;;;0.60;0.60;;;;;;;2.84;100.00;98817.81;10399164;28;20120;-73
2023/03/10 12:18:43;;;;;;;0.60;0.60;;;;;;;2.85;100.00;98816.78;10382573;28;20704;-73
2023/03/10 12:23:46;;;;;;;0.70;0.70;;;;;;;2.86;100.00;98850.50;10398778;28;20135;-73
2023/03/10 12:28:46;;;;;;;0.50;0.50;;;;;;;2.73;100.00;98851.25;10398282;28;20365;-73
2023/03/10 12:33:49;;;;;;;0.70;0.70;;;;;;;2.64;100.00;98870.31;10415665;28;20040;-73
2023/03/10 12:38:58;;;;;;;1.13;1.13;;;;;;;2.56;100.00;98882.81;10416159;28;20484;-73
2023/03/10 12:44:05;;;;;;;5.72;1.63;;;;;;;2.47;100.00;98897.34;10415739;28;20453;-73
2023/03/10 12:49:32;;;;;;;0.70;0.70;;;;;;;2.33;100.00;98933.00;10414892;28;20060;-73
2023/03/10 12:54:33;;;;;;;;;;;;;;;2.12;100.00;98960.53;10415161;28;20041;-73
2023/03/10 12:59:59;;;;;;;0.75;0.75;;;;;;;2.11;100.00;98993.59;10432415;28;19913;-73
2023/03/10 13:05:17;;;;;;;0.73;0.73;;;;;;;1.93;100.00;99023.38;10416034;28;20113;-73
2023/03/10 13:10:20;;;;;;;0.60;0.60;;;;;;;1.60;100.00;99052.31;10413931;28;20446;-73
2023/03/10 13:15:29;;;;;;;0.60;0.60;;;;;;;1.32;100.00;99082.28;10413519;28;20369;-74
2023/03/10 13:20:35;;;;;;;0.70;0.70;;;;;;;1.10;100.00;99131.16;10398195;28;20050;-73
2023/03/10 13:25:35;;;;;;;0.60;0.60;;;;;;;1.11;100.00;99170.97;10413771;28;20483;-74
2023/03/10 13:30:36;;;;;;;0.65;0.65;;;;;;;1.23;100.00;99168.72;10414853;28;20030;-73
2023/03/10 13:35:37;;;;;;;0.70;0.70;;;;;;;1.25;100.00;99214.69;10416457;28;20368;-74
2023/03/10 13:40:57;;;;;;;0.75;0.75;;;;;;;1.31;100.00;99245.97;10397653;28;20396;-74
2023/03/10 13:45:58;;;;;;;0.65;0.65;;;;;;;1.42;100.00;99282.06;10397588;28;20535;-73
2023/03/10 13:51:06;;;;;;;0.55;0.55;;;;;;;1.39;100.00;99312.56;10412419;28;20091;-73
2023/03/10 13:56:27;;;;;;;0.85;0.85;;;;;;;1.33;100.00;99341.78;10396916;28;20026;-73
2023/03/10 14:01:29;;;;;;;0.60;0.60;;;;;;;1.35;100.00;99358.47;10413207;28;20069;-73
2023/03/10 14:06:30;;;;;;;0.57;0.57;;;;;;;1.09;100.00;99354.28;10421211;28;20029;-73
2023/03/10 14:11:32;;;;;;;0.50;0.50;;;;;;;0.96;100.00;99395.78;10421606;28;20029;-73
2023/03/10 14:17:05;;;;;;;0.77;0.77;;;;;;;1.01;100.00;99460.91;10424392;28;20032;-74
2023/03/10 14:22:42;;;;;;;0.57;0.57;;;;;;;0.94;100.00;99489.25;10414638;28;20136;-73
2023/03/10 14:28:05;;;;;;;0.50;0.50;;;;;;;0.85;100.00;99549.72;10399151;28;20465;-74
2023/03/10 14:33:12;;;;;;;0.60;0.60;;;;;;;0.74;100.00;99547.44;10422067;28;20255;-74
2023/03/10 14:38:13;;;;;;;3.78;3.60;;;;;;;0.73;100.00;99583.03;10422186;28;20505;-73
2023/03/10 14:43:24;;;;;;;1.05;1.05;;;;;;;0.75;100.00;99597.03;10424024;28;20079;-73
2023/03/10 14:48:26;;;;;;;0.80;0.80;;;;;;;0.64;100.00;99624.84;10423625;28;20033;-74
2023/03/10 14:53:27;;;;;;;0.63;0.63;;;;;;;0.43;100.00;99624.47;10422879;28;20032;-73
2023/03/10 14:58:32;;;;;;;0.77;0.77;;;;;;;0.29;100.00;99671.22;10423321;28;20381;-73
2023/03/10 15:03:33;;;;;;;0.70;0.70;;;;;;;0.14;100.00;99692.28;10387775;28;20488;-73
2023/03/10 15:08:33;;;;;;;0.70;0.70;;;;;;;0.06;100.00;99692.22;10418230;28;20048;-73
2023/03/10 15:13:34;;;;;;;0.70;0.70;;;;;;;0.15;100.00;99709.09;10420665;28;20129;-74
2023/03/10 15:18:35;;;;;;;0.75;0.75;;;;;;;0.23;100.00;99731.25;10405788;28;20105;-77
2023/03/10 15:23:35;;;;;;;0.70;0.70;;;;;;;0.30;100.00;99759.91;10438608;28;20049;-77
2023/03/10 15:28:36;;;;;;;0.80;0.80;;;;;;;0.40;100.00;99806.72;10437414;28;20041;-77
2023/03/10 15:33:37;;;;;;;0.80;0.80;;;;;;;0.47;100.00;99790.94;10428844;28;20121;-77
2023/03/10 15:38:37;;;;;;;0.70;0.70;;;;;;;0.51;100.00;99823.41;10426382;28;20037;-75
2023/03/10 15:43:38;;;;;;;0.70;0.70;;;;;;;0.55;100.00;99841.59;10427736;28;20037;-75
2023/03/10 15:48:39;;;;;;;0.70;0.70;;;;;;;0.73;100.00;99860.16;10424491;28;20046;-74
2023/03/10 15:53:39;;;;;;;0.50;0.50;;;;;;;1.03;100.00;99877.44;10423536;28;20037;-73
2023/03/10 15:58:40;;;;;;;0.63;0.63;;;;;;;1.42;100.00;99894.72;10420941;28;20033;-73
2023/03/10 16:03:41;;;;;;;0.70;0.70;;;;;;;1.64;100.00;99872.75;10418136;28;20477;-73
2023/03/10 16:08:41;;;;;;;0.70;0.70;;;;;;;1.70;100.00;99879.28;10416949;28;20034;-72
2023/03/10 16:13:45;;;;;;;0.70;0.70;;;;;;;1.68;100.00;99924.78;10416998;28;20033;-73
2023/03/10 16:18:46;;;;;;;0.65;0.65;;;;;;;1.70;100.00;99938.81;10399515;28;20030;-73
2023/03/10 16:23:46;;;;;;;0.50;0.50;;;;;;;1.53;100.00;99977.97;10418139;28;20050;-73
2023/03/10 16:28:52;;;;;;;0.75;0.75;;;;;;;1.52;100.00;99986.13;10416438;28;20088;-73
2023/03/10 16:33:53;;;;;;;0.68;0.68;;;;;;;1.47;100.00;99985.75;10416108;28;20464;-74
2023/03/10 16:38:54;;;;;;;0.60;0.60;;;;;;;1.39;100.00;100016.75;10416155;28;20073;-73
2023/03/10 16:43:55;;;;;;;0.75;0.75;;;;;;;1.23;100.00;100038.00;10398748;28;20453;-73
2023/03/10 16:48:55;;;;;;;0.70;0.70;;;;;;;1.06;100.00;100052.25;10415544;28;20529;-73
2023/03/10 16:54:01;;;;;;;0.52;0.52;;;;;;;1.10;100.00;100050.94;10415203;28;20025;-72
2023/03/10 16:59:01;;;;;;;0.70;0.70;;;;;;;1.24;100.00;100070.84;10414018;28;20033;-73
2023/03/10 17:04:02;;;;;;;0.73;0.73;;;;;;;1.25;100.00;100093.88;10415704;28;20029;-73
2023/03/10 17:09:04;;;;;;;0.60;0.60;;;;;;;1.04;100.00;100121.72;10414857;28;20440;-73
2023/03/10 17:14:10;;;;;;;0.70;0.70;;;;;;;0.88;100.00;100127.75;10414603;28;20179;-73
2023/03/10 17:19:18;;;;;;;0.73;0.73;;;;;;;0.44;100.00;100146.31;10380696;28;20030;-73
2023/03/10 17:24:18;;;;;;;0.68;0.68;;;;;;;0.35;100.00;100133.06;10414011;28;20045;-74
2023/03/10 17:29:19;;;;;;;0.70;0.70;;;;;;;0.27;100.00;100160.47;10415196;28;20040;-74
2023/03/10 17:34:19;;;;;;;0.75;0.75;;;;;;;0.23;100.00;100188.38;10413323;28;20034;-73
2023/03/10 17:39:20;;;;;;;0.50;0.50;;;;;;;0.20;100.00;100181.53;10417935;28;20041;-74
2023/03/10 17:44:21;;;;;;;0.70;0.70;;;;;;;0.25;100.00;100198.88;10405715;28;20026;-74
2023/03/10 17:49:21;;;;;;;0.60;0.60;;;;;;;0.41;100.00;100218.53;10422857;28;20105;-74
2023/03/10 17:54:22;;;;;;;0.70;0.70;;;;;;;0.49;100.00;100231.13;10405698;28;20107;-74
2023/03/10 17:59:22;;;;;;;2.35;2.25;;;;;;;0.55;100.00;100262.50;10422198;28;20072;-73
2023/03/10 18:04:28;;;;;;;0.82;0.82;;;;;;;0.49;100.00;100283.56;10422528;28;20108;-73
2023/03/10 18:09:28;;;;;;;0.93;0.93;;;;;;;0.37;100.00;100291.72;10421750;28;20041;-73
2023/03/10 18:14:29;;;;;;;1.33;1.30;;;;;;;0.40;100.00;100296.78;10421639;28;20077;-73
2023/03/10 18:19:29;;;;;;;0.70;0.70;;;;;;;0.38;100.00;100292.56;10421012;28;20116;-73
2023/03/10 18:24:30;;;;;;;0.70;0.70;;;;;;;0.47;100.00;100289.84;10422096;28;20389;-73
2023/03/10 18:29:30;;;;;;;0.60;0.60;;;;;;;0.57;100.00;100294.31;10422041;28;20033;-73
2023/03/10 18:34:31;;;;;;;0.50;0.50;;;;;;;0.66;100.00;100296.91;10419868;28;20046;-73
2023/03/10 18:39:31;;;;;;;0.60;0.60;;;;;;;0.68;100.00;100318.94;10420065;28;20492;-73
2023/03/10 18:44:32;;;;;;;0.50;0.50;;;;;;;0.58;100.00;100336.81;10420395;28;20032;-73
2023/03/10 18:49:32;;;;;;;0.60;0.60;;;;;;;0.42;100.00;100336.59;10420217;28;20030;-73
2023/03/10 18:54:32;;;;;;;0.50;0.50;;;;;;;0.31;100.00;100352.72;10420875;28;20060;-73
2023/03/10 18:59:33;;;;;;;0.65;0.65;;;;;;;0.21;100.00;100361.59;10420783;28;20026;-73
2023/03/10 19:04:33;;;;;;;2.30;2.30;;;;;;;0.33;100.00;100366.75;10420393;28;20054;-72
2023/03/10 19:09:34;;;;;;;0.63;0.63;;;;;;;0.51;100.00;100393.47;10418152;28;20484;-73
2023/03/10 19:14:34;;;;;;;0.57;0.57;;;;;;;0.62;100.00;100401.28;10418776;28;20048;-73
2023/03/10 19:19:35;;;;;;;0.70;0.70;;;;;;;0.65;100.00;100409.00;10418589;28;20119;-72
2023/03/10 19:24:35;;;;;;;11.63;3.33;;;;;;;0.75;100.00;100427.63;10419332;28;20069;-72
2023/03/10 19:29:36;;;;;;;14.60;2.90;;;;;;;0.85;100.00;100428.41;10418124;28;20112;-72
2023/03/10 19:34:36;;;;;;;9.73;3.03;;;;;;;0.94;100.00;100448.88;10419331;28;20429;-72
2023/03/10 19:39:36;;;;;;;6.85;2.28;;;;;;;1.00;100.00;100442.13;10419339;28;20040;-72
2023/03/10 19:44:37;;;;;;;12.43;3.10;;;;;;;1.11;100.00;100448.06;10419412;28;20067;-72
2023/03/10 19:49:38;;;;;;;4.30;2.55;;;;;;;1.16;100.00;100461.00;10418579;28;20029;-71
2023/03/10 19:54:40;;;;;;;9.77;3.20;;;;;;;1.14;100.00;100461.13;10418360;28;20410;-71
2023/03/10 19:59:40;;;;;;;4.50;2.72;;;;;;;1.03;100.00;100492.47;10416911;28;20038;-71
2023/03/10 20:04:41;;;;;;;9.77;2.63;;;;;;;0.81;100.00;100493.66;10416228;28;20029;-72
2023/03/10 20:09:41;;;;;;;6.18;2.35;;;;;;;0.84;100.00;100498.72;10418186;28;20079;-70
2023/03/10 20:14:42;;;;;;;4.22;2.58;;;;;;;0.71;100.00;100508.84;10416393;28;20103;-71
2023/03/10 20:19:42;;;;;;;4.93;2.25;;;;;;;0.89;100.00;100509.75;10417921;28;20033;-71
2023/03/10 20:24:43;;;;;;;18.83;2.05;;;;;;;0.85;100.00;100525.22;10415422;28;20133;-71
2023/03/10 20:29:43;;;;;;;9.27;1.98;;;;;;;0.79;100.00;100535.59;10416523;28;20427;-70
2023/03/10 20:34:43;;;;;;;1.67;1.58;;;;;;;0.74;100.00;100544.03;10415724;28;20465;-71
2023/03/10 20:39:44;;;;;;;5.13;1.77;;;;;;;0.74;100.00;100561.88;10416181;28;20037;-71
2023/03/10 20:44:44;;;;;;;4.63;1.45;;;;;;;0.56;100.00;100572.38;10415871;28;20171;-71
2023/03/10 20:49:45;;;;;;;2.75;2.47;;;;;;;0.59;100.00;100572.94;10414445;28;20103;-71
2023/03/10 20:54:45;;;;;;;6.20;2.50;;;;;;;0.59;100.00;100572.94;10416301;28;20079;-71
2023/03/10 20:59:46;;;;;;;5.85;2.28;;;;;;;0.64;100.00;100580.53;10415489;28;20034;-71
2023/03/10 21:04:46;;;;;;;2.22;2.13;;;;;;;0.73;100.00;100595.66;10413534;28;20037;-71
2023/03/10 21:09:47;;;;;;;17.70;3.30;;;;;;;0.74;100.00;100607.16;10415228;28;20168;-71
2023/03/10 21:14:47;;;;;;;4.18;1.48;;;;;;;0.67;100.00;100606.88;10415124;28;20081;-71
2023/03/10 21:19:48;;;;;;;2.33;2.05;;;;;;;0.77;100.00;100618.38;10414248;28;20138;-71
2023/03/10 21:24:48;;;;;;;4.88;1.98;;;;;;;0.78;100.00;100633.38;10413568;28;20089;-71
2023/03/10 21:29:49;;;;;;;11.00;2.28;;;;;;;0.91;100.00;100649.09;10416116;28;20029;-71
2023/03/10 21:34:49;;;;;;;3.55;1.85;;;;;;;1.04;100.00;100648.81;10414481;28;20127;-71
2023/03/10 21:39:52;;;;;;;2.80;1.98;;;;;;;0.99;100.00;100645.72;10415031;28;20455;-72
2023/03/10 21:44:54;;;;;;;8.70;2.70;;;;;;;0.84;100.00;100663.97;10415684;28;20044;-71
2023/03/10 21:49:55;;;;;;;4.15;2.05;;;;;;;0.74;100.00;100669.31;10416755;28;20124;-71
2023/03/10 21:54:55;;;;;;;4.30;2.30;;;;;;;0.80;100.00;100681.22;10413294;28;20488;-71
2023/03/10 21:59:55;;;;;;;11.15;1.60;;;;;;;0.85;100.00;100677.16;10413563;28;20483;-71
2023/03/10 22:04:56;;;;;;;2.20;1.35;;;;;;;0.75;100.00;100684.31;10412698;28;20060;-71
2023/03/10 22:09:56;;;;;;;8.13;2.25;;;;;;;0.70;100.00;100686.53;10412765;28;20033;-71
2023/03/10 22:14:57;;;;;;;7.20;2.28;;;;;;;0.64;100.00;100693.28;10414343;28;20038;-71
2023/03/10 22:19:57;;;;;;;5.88;1.95;;;;;;;0.58;100.00;100693.00;10414914;28;20545;-72
2023/03/10 22:24:58;;;;;;;7.40;2.00;;;;;;;0.57;100.00;100709.94;10416981;28;20056;-72
2023/03/10 22:29:58;;;;;;;2.50;1.52;;;;;;;0.58;100.00;100709.81;10403592;28;20056;-72
2023/03/10 22:34:58;;;;;;;3.55;2.00;;;;;;;0.59;100.00;100718.66;10421910;28;20044;-72
2023/03/10 22:39:59;;;;;;;3.08;2.05;;;;;;;0.57;100.00;100724.09;10421838;28;20607;-72
2023/03/10 22:45:00;;;;;;;1.88;1.67;;;;;;;0.58;100.00;100720.47;10421621;28;20386;-72
2023/03/10 22:50:00;;;;;;;7.93;2.22;;;;;;;0.57;100.00;100724.09;10419144;28;20057;-72
2023/03/10 22:55:01;;;;;;;2.38;1.85;;;;;;;0.64;100.00;100730.59;10420384;28;20128;-72
2023/03/10 23:00:01;;;;;;;1.67;1.17;;;;;;;0.59;100.00;100732.81;10420112;28;20362;-72
2023/03/10 23:05:02;;;;;;;4.60;1.38;;;;;;;0.63;100.00;100736.88;10419381;28;20037;-71
2023/03/10 23:10:06;;;;;;;11.45;2.00;;;;;;;0.68;100.00;100760.47;10419531;28;20036;-72
2023/03/10 23:15:07;;;;;;;3.20;0.93;;;;;;;0.64;100.00;100757.25;10420094;28;20377;-71
2023/03/10 23:20:12;;;;;;;1.08;1.08;;;;;;;0.61;100.00;100770.84;10419232;28;20045;-71